Time;durP1;ratioP1;P1;durP2;ratioP2;P2;SDS_P1;SDS_P2;PMS_P1;PMS_P2;Temp;Humidity;BMP_temperature;BMP_pressure;BME280_temperature;BME280_humidity;BME280_pressure;Samples;Min_cycle;Max_cycle;Signal;HPM_P1;HPM_P2
2023/10/30 00:00:38;;;;;;;;;;;15.20;57.10;;;;;;4993960;28;87663;-44
2023/10/30 00:03:03;;;;;;;;;;;15.20;57.10;;;;;;4995388;28;87193;-46
2023/10/30 00:05:29;;;;;;;;;;;15.20;57.10;;;;;;4994832;28;87139;-44
2023/10/30 00:07:55;;;;;;;;;;;15.20;57.10;;;;;;4994173;28;87309;-44
2023/10/30 00:10:21;;;;;;;;;;;15.20;57.10;;;;;;4997525;28;90866;-44
2023/10/30 00:12:46;;;;;;;;;;;15.20;57.10;;;;;;4992577;28;88292;-43
2023/10/30 00:15:12;;;;;;;;;;;15.20;57.10;;;;;;4992640;28;88025;-44
2023/10/30 00:17:38;;;;;;;;;;;15.20;57.00;;;;;;4995591;28;87100;-44
2023/10/30 00:20:04;;;;;;;;;;;15.20;57.10;;;;;;4994058;28;87048;-45
2023/10/30 00:22:29;;;;;;;;;;;15.10;57.00;;;;;;4993183;28;89767;-45
2023/10/30 00:24:55;;;;;;;;;;;15.10;57.10;;;;;;4994888;28;87664;-44
2023/10/30 00:27:20;;;;;;;;;;;15.10;57.10;;;;;;4995669;28;87461;-44
2023/10/30 00:29:46;;;;;;;;;;;15.10;57.10;;;;;;4992157;28;88565;-44
2023/10/30 00:32:11;;;;;;;;;;;15.10;57.00;;;;;;4999101;28;87240;-43
2023/10/30 00:34:37;;;;;;;;;;;15.10;57.10;;;;;;4991766;28;90200;-44
2023/10/30 00:37:02;;;;;;;;;;;15.00;57.00;;;;;;4994995;28;87204;-45
2023/10/30 00:39:31;;;;;;;;;;;15.10;57.10;;;;;;4994309;28;86979;-44
2023/10/30 00:42:00;;;;;;;;;;;15.10;57.00;;;;;;4993117;28;88300;-43
2023/10/30 00:44:26;;;;;;;;;;;15.00;57.00;;;;;;4995234;28;87211;-44
2023/10/30 00:46:53;;;;;;;;;;;15.00;57.00;;;;;;4992639;28;87633;-44
2023/10/30 00:49:18;;;;;;;;;;;15.00;57.00;;;;;;4994526;28;88515;-43
2023/10/30 00:51:44;;;;;;;;;;;15.00;57.00;;;;;;4993875;28;86402;-44
2023/10/30 00:54:09;;;;;;;;;;;15.00;57.00;;;;;;4996159;28;88219;-45
2023/10/30 00:56:35;;;;;;;;;;;15.00;57.00;;;;;;4994829;28;87079;-44
2023/10/30 00:59:00;;;;;;;;;;;15.00;57.00;;;;;;4994879;28;88112;-44
2023/10/30 01:01:26;;;;;;;;;;;14.90;57.00;;;;;;4991962;28;87858;-43
2023/10/30 01:03:51;;;;;;;;;;;14.90;56.90;;;;;;4992285;28;87557;-44
2023/10/30 01:06:18;;;;;;;;;;;14.90;56.90;;;;;;4994903;28;87476;-43
2023/10/30 01:08:43;;;;;;;;;;;14.90;56.80;;;;;;4992967;28;87949;-43
2023/10/30 01:11:09;;;;;;;;;;;14.90;56.80;;;;;;4993780;28;87123;-43
2023/10/30 01:13:36;;;;;;;;;;;14.90;56.80;;;;;;4997233;28;87525;-44
2023/10/30 01:16:01;;;;;;;;;;;14.90;56.90;;;;;;4995226;28;86873;-44
2023/10/30 01:18:27;;;;;;;;;;;14.80;56.90;;;;;;4991924;28;86829;-46
2023/10/30 01:20:53;;;;;;;;;;;14.80;56.80;;;;;;4994740;28;87900;-44
2023/10/30 01:23:18;;;;;;;;;;;14.90;57.00;;;;;;4991942;28;88723;-43
2023/10/30 01:25:46;;;;;;;;;;;14.80;56.90;;;;;;4994196;28;88260;-44
2023/10/30 01:28:11;;;;;;;;;;;14.80;56.90;;;;;;4992310;28;89481;-44
2023/10/30 01:30:37;;;;;;;;;;;14.80;56.90;;;;;;4992439;28;87166;-44
2023/10/30 01:33:02;;;;;;;;;;;14.80;56.90;;;;;;4994680;28;87509;-43
2023/10/30 01:35:28;;;;;;;;;;;14.80;56.90;;;;;;4992860;28;88057;-44
2023/10/30 01:37:53;;;;;;;;;;;14.80;57.50;;;;;;4994948;28;87210;-44
2023/10/30 01:40:19;;;;;;;;;;;14.80;56.90;;;;;;4992459;28;87269;-45
2023/10/30 01:42:44;;;;;;;;;;;14.80;56.90;;;;;;4993797;28;87116;-44
2023/10/30 01:45:10;;;;;;;;;;;14.80;56.90;;;;;;4992647;28;87830;-45
2023/10/30 01:47:37;;;;;;;;;;;14.70;56.70;;;;;;4991645;28;89055;-44
2023/10/30 01:50:02;;;;;;;;;;;14.70;56.80;;;;;;4994309;28;87123;-44
2023/10/30 01:52:29;;;;;;;;;;;14.70;56.80;;;;;;4990649;28;88704;-44
2023/10/30 01:54:55;;;;;;;;;;;14.70;56.90;;;;;;4993841;28;88345;-43
2023/10/30 01:57:21;;;;;;;;;;;14.70;56.80;;;;;;4994847;28;87017;-43
2023/10/30 01:59:49;;;;;;;;;;;14.70;56.80;;;;;;4992242;28;87971;-43
2023/10/30 02:02:15;;;;;;;;;;;14.70;56.80;;;;;;4993452;28;87157;-43
2023/10/30 02:04:40;;;;;;;;;;;14.60;56.80;;;;;;4992265;28;87521;-45
2023/10/30 02:07:06;;;;;;;;;;;14.60;56.80;;;;;;4994161;28;87866;-43
2023/10/30 02:09:32;;;;;;;;;;;14.60;56.80;;;;;;4991158;28;87637;-43
2023/10/30 02:11:57;;;;;;;;;;;14.60;56.40;;;;;;4993458;28;88430;-44
2023/10/30 02:14:24;;;;;;;;;;;14.60;56.80;;;;;;4991934;28;87983;-43
2023/10/30 02:16:49;;;;;;;;;;;14.50;56.70;;;;;;4991079;28;87101;-43
2023/10/30 02:19:18;;;;;;;;;;;14.60;56.80;;;;;;4994798;28;87415;-44
2023/10/30 02:21:44;;;;;;;;;;;14.60;56.80;;;;;;4993775;28;87129;-44
2023/10/30 02:24:10;;;;;;;;;;;14.60;56.80;;;;;;4990872;28;87462;-44
2023/10/30 02:26:36;;;;;;;;;;;14.60;56.80;;;;;;4993675;28;89128;-44
2023/10/30 02:29:03;;;;;;;;;;;14.60;56.70;;;;;;4992545;28;86382;-45
2023/10/30 02:31:30;;;;;;;;;;;14.60;56.80;;;;;;4992303;28;87102;-45
2023/10/30 02:33:55;;;;;;;;;;;14.50;56.70;;;;;;4992586;28;87990;-44
2023/10/30 02:36:21;;;;;;;;;;;14.50;56.70;;;;;;4990579;28;87990;-43
2023/10/30 02:38:46;;;;;;;;;;;14.50;56.70;;;;;;4994197;28;88304;-44
2023/10/30 02:41:12;;;;;;;;;;;14.50;56.80;;;;;;4993246;28;89387;-45
2023/10/30 02:43:37;;;;;;;;;;;14.50;56.80;;;;;;4993480;28;87497;-43
2023/10/30 02:46:06;;;;;;;;;;;14.40;56.70;;;;;;4990293;28;87832;-43
2023/10/30 02:48:31;;;;;;;;;;;14.50;56.70;;;;;;4991975;28;87017;-43
2023/10/30 02:51:00;;;;;;;;;;;14.50;56.70;;;;;;4992938;28;87502;-44
2023/10/30 02:53:25;;;;;;;;;;;14.40;56.60;;;;;;4990673;28;87276;-46
2023/10/30 02:55:51;;;;;;;;;;;14.40;56.70;;;;;;4993891;28;87262;-43
2023/10/30 02:58:16;;;;;;;;;;;14.40;56.70;;;;;;4991214;28;87418;-44
2023/10/30 03:00:42;;;;;;;;;;;14.40;56.70;;;;;;4992106;28;89873;-44
2023/10/30 03:03:07;;;;;;;;;;;14.40;56.70;;;;;;4995199;28;87082;-43
2023/10/30 03:05:33;;;;;;;;;;;14.40;56.70;;;;;;4992273;28;88356;-43
2023/10/30 03:07:58;;;;;;;;;;;14.40;57.30;;;;;;4991096;28;87066;-43
2023/10/30 03:10:24;;;;;;;;;;;14.30;56.60;;;;;;4993711;28;87314;-43
2023/10/30 03:12:49;;;;;;;;;;;14.40;56.70;;;;;;4989864;28;87540;-44
2023/10/30 03:15:15;;;;;;;;;;;14.30;56.60;;;;;;4991730;28;87201;-44
2023/10/30 03:17:41;;;;;;;;;;;14.30;56.60;;;;;;4993315;28;87023;-44
2023/10/30 03:20:08;;;;;;;;;;;14.30;56.60;;;;;;4991395;28;88231;-45
2023/10/30 03:22:33;;;;;;;;;;;14.30;56.60;;;;;;4994144;28;87122;-45
2023/10/30 03:24:59;;;;;;;;;;;14.30;56.60;;;;;;4991946;28;88789;-45
2023/10/30 03:27:25;;;;;;;;;;;14.30;56.60;;;;;;4990241;28;87161;-43
2023/10/30 03:29:50;;;;;;;;;;;14.30;56.60;;;;;;4993754;28;87506;-44
2023/10/30 03:32:16;;;;;;;;;;;14.20;56.60;;;;;;4991754;28;90098;-43
2023/10/30 03:34:42;;;;;;;;;;;14.20;56.60;;;;;;4991160;28;87152;-44
2023/10/30 03:37:08;;;;;;;;;;;14.20;56.60;;;;;;4992033;28;88105;-43
2023/10/30 03:39:34;;;;;;;;;;;14.30;56.50;;;;;;4991682;28;89859;-43
2023/10/30 03:41:59;;;;;;;;;;;14.20;56.60;;;;;;4991242;28;86391;-45
2023/10/30 03:44:26;;;;;;;;;;;14.20;56.60;;;;;;4995611;28;86967;-44
2023/10/30 03:46:54;;;;;;;;;;;14.20;56.60;;;;;;4989749;28;87561;-44
2023/10/30 03:49:21;;;;;;;;;;;14.10;56.60;;;;;;4991463;28;88804;-43
2023/10/30 03:51:47;;;;;;;;;;;14.10;56.50;;;;;;4990483;28;89172;-44
2023/10/30 03:54:13;;;;;;;;;;;14.10;56.60;;;;;;4990990;28;87029;-43
2023/10/30 03:56:38;;;;;;;;;;;14.10;56.60;;;;;;5000009;28;90552;-45
2023/10/30 03:59:04;;;;;;;;;;;14.10;56.50;;;;;;4991915;28;88133;-44
2023/10/30 04:01:30;;;;;;;;;;;14.00;56.60;;;;;;4995896;28;87174;-43
2023/10/30 04:03:56;;;;;;;;;;;14.00;56.70;;;;;;4993529;28;87289;-44
2023/10/30 04:06:21;;;;;;;;;;;14.00;56.70;;;;;;4998454;28;87252;-44
2023/10/30 04:08:47;;;;;;;;;;;14.00;56.50;;;;;;4994783;28;87270;-45
2023/10/30 04:11:13;;;;;;;;;;;14.00;56.60;;;;;;4994182;28;88046;-44
2023/10/30 04:13:38;;;;;;;;;;;14.00;56.60;;;;;;4994804;28;88100;-43
2023/10/30 04:16:04;;;;;;;;;;;14.00;56.50;;;;;;4992449;28;88346;-44
2023/10/30 04:18:31;;;;;;;;;;;14.00;56.50;;;;;;4995887;28;88020;-43
2023/10/30 04:20:56;;;;;;;;;;;13.90;56.60;;;;;;4993256;28;87099;-44
2023/10/30 04:23:22;;;;;;;;;;;13.90;56.50;;;;;;4995382;28;87605;-44
2023/10/30 04:25:47;;;;;;;;;;;13.90;56.50;;;;;;4994063;28;88546;-43
2023/10/30 04:28:12;;;;;;;;;;;13.90;56.50;;;;;;4997250;28;87837;-44
2023/10/30 04:30:38;;;;;;;;;;;13.90;56.50;;;;;;4995137;28;87100;-43
2023/10/30 04:33:03;;;;;;;;;;;13.90;56.50;;;;;;4995702;28;87093;-43
2023/10/30 04:35:29;;;;;;;;;;;13.90;56.50;;;;;;4992744;28;88109;-43
2023/10/30 04:37:55;;;;;;;;;;;13.90;56.40;;;;;;4994707;28;88966;-43
2023/10/30 04:40:20;;;;;;;;;;;13.90;56.50;;;;;;4993468;28;87219;-43
2023/10/30 04:42:46;;;;;;;;;;;13.80;56.50;;;;;;4994549;28;88380;-44
2023/10/30 04:45:11;;;;;;;;;;;13.80;56.40;;;;;;4994077;28;88274;-44
2023/10/30 04:47:37;;;;;;;;;;;13.80;56.40;;;;;;4994082;28;87379;-44
2023/10/30 04:50:02;;;;;;;;;;;13.80;56.50;;;;;;4997733;28;87462;-43
2023/10/30 04:52:29;;;;;;;;;;;13.80;56.40;;;;;;4991524;28;87138;-43
2023/10/30 04:54:55;;;;;;;;;;;13.80;56.50;;;;;;4989512;28;87331;-46
2023/10/30 04:57:21;;;;;;;;;;;13.80;57.10;;;;;;4991668;28;89490;-43
2023/10/30 04:59:46;;;;;;;;;;;13.70;56.40;;;;;;4994735;28;87016;-43
2023/10/30 05:02:12;;;;;;;;;;;13.70;56.40;;;;;;4992333;28;88874;-44
2023/10/30 05:04:37;;;;;;;;;;;13.80;56.40;;;;;;4987361;28;87859;-43
2023/10/30 05:07:03;;;;;;;;;;;13.70;56.40;;;;;;4991607;28;87555;-44
2023/10/30 05:09:28;;;;;;;;;;;13.70;56.40;;;;;;4995349;28;87366;-44
2023/10/30 05:11:54;;;;;;;;;;;13.70;56.40;;;;;;4992815;28;88093;-45
2023/10/30 05:14:20;;;;;;;;;;;13.70;56.40;;;;;;4986941;28;88891;-44
2023/10/30 05:16:45;;;;;;;;;;;13.60;56.40;;;;;;4991283;28;88031;-43
2023/10/30 05:19:11;;;;;;;;;;;13.70;56.50;;;;;;4991067;28;86443;-43
2023/10/30 05:21:36;;;;;;;;;;;13.60;56.50;;;;;;4989081;28;87313;-43
2023/10/30 05:24:02;;;;;;;;;;;13.60;56.50;;;;;;4989898;28;88110;-43
2023/10/30 05:26:27;;;;;;;;;;;13.60;56.50;;;;;;4994094;28;88156;-45
2023/10/30 05:28:53;;;;;;;;;;;13.60;56.40;;;;;;4991391;28;88256;-43
2023/10/30 05:31:18;;;;;;;;;;;13.60;56.50;;;;;;4992113;28;88204;-44
2023/10/30 05:33:44;;;;;;;;;;;13.60;56.50;;;;;;4991535;28;87613;-43
2023/10/30 05:36:10;;;;;;;;;;;13.60;56.50;;;;;;4992844;28;87679;-43
2023/10/30 05:38:35;;;;;;;;;;;13.60;56.40;;;;;;4994119;28;87141;-44
2023/10/30 05:41:00;;;;;;;;;;;13.50;56.40;;;;;;4989062;28;87449;-44
2023/10/30 05:43:27;;;;;;;;;;;13.50;56.40;;;;;;4991270;28;87420;-43
2023/10/30 05:45:53;;;;;;;;;;;13.50;56.40;;;;;;4994592;28;87195;-43
2023/10/30 05:48:19;;;;;;;;;;;13.50;56.40;;;;;;4988668;28;87482;-43
2023/10/30 05:50:44;;;;;;;;;;;13.50;56.40;;;;;;4988658;28;90473;-45
2023/10/30 05:53:10;;;;;;;;;;;13.50;56.50;;;;;;4994326;28;87104;-43
2023/10/30 05:55:35;;;;;;;;;;;13.50;56.40;;;;;;4993002;28;87996;-43
2023/10/30 05:58:02;;;;;;;;;;;13.50;56.40;;;;;;4994883;28;88429;-44
2023/10/30 06:00:29;;;;;;;;;;;13.50;56.40;;;;;;4990590;28;87471;-43
2023/10/30 06:02:55;;;;;;;;;;;13.50;56.40;;;;;;4990544;28;87117;-43
2023/10/30 06:05:21;;;;;;;;;;;13.50;56.40;;;;;;4991871;28;87091;-43
2023/10/30 06:07:47;;;;;;;;;;;13.50;56.30;;;;;;4991537;28;87373;-43
2023/10/30 06:10:13;;;;;;;;;;;13.50;56.30;;;;;;4990671;28;87664;-43
2023/10/30 06:12:39;;;;;;;;;;;13.50;56.40;;;;;;4990471;28;87080;-44
2023/10/30 06:15:05;;;;;;;;;;;13.40;56.30;;;;;;4996392;28;89006;-43
2023/10/30 06:17:30;;;;;;;;;;;13.40;56.40;;;;;;4989540;28;87070;-43
2023/10/30 06:19:56;;;;;;;;;;;13.40;56.30;;;;;;4992404;28;90349;-43
2023/10/30 06:22:21;;;;;;;;;;;13.50;56.40;;;;;;4990740;28;88425;-43
2023/10/30 06:24:47;;;;;;;;;;;13.40;56.40;;;;;;4993872;28;87200;-43
2023/10/30 06:27:13;;;;;;;;;;;13.40;56.40;;;;;;4988821;28;87555;-44
2023/10/30 06:29:38;;;;;;;;;;;13.40;56.40;;;;;;4986698;28;88197;-43
2023/10/30 06:32:04;;;;;;;;;;;13.40;56.30;;;;;;4991980;28;86459;-43
2023/10/30 06:34:32;;;;;;;;;;;13.40;56.30;;;;;;4993134;28;87330;-43
2023/10/30 06:36:57;;;;;;;;;;;13.40;56.30;;;;;;4992391;28;88251;-44
2023/10/30 06:39:23;;;;;;;;;;;13.40;56.40;;;;;;4986064;28;88166;-45
2023/10/30 06:41:54;;;;;;;;;;;13.40;56.40;;;;;;4992412;28;88436;-43
2023/10/30 06:44:20;;;;;;;;;;;13.40;56.40;;;;;;4994982;28;87020;-44
2023/10/30 06:46:46;;;;;;;;;;;13.40;56.40;;;;;;4986743;28;88778;-43
2023/10/30 06:49:11;;;;;;;;;;;13.40;56.50;;;;;;4989759;28;87166;-43
2023/10/30 06:51:37;;;;;;;;;;;13.30;57.10;;;;;;4990409;28;87114;-46
2023/10/30 06:54:02;;;;;;;;;;;13.40;56.50;;;;;;4988698;28;88780;-44
2023/10/30 06:56:28;;;;;;;;;;;13.30;56.60;;;;;;4989310;28;88111;-44
2023/10/30 06:58:53;;;;;;;;;;;13.30;56.60;;;;;;4995443;28;87131;-44
2023/10/30 07:01:19;;;;;;;;;;;13.30;56.60;;;;;;4991326;28;88018;-44
2023/10/30 07:03:44;;;;;;;;;;;13.30;56.60;;;;;;4988099;28;88466;-44
2023/10/30 07:06:11;;;;;;;;;;;13.30;56.60;;;;;;4991300;28;88435;-43
2023/10/30 07:08:37;;;;;;;;;;;13.40;56.70;;;;;;4990011;28;88721;-42
2023/10/30 07:11:02;;;;;;;;;;;13.30;56.60;;;;;;4993967;28;87421;-43
2023/10/30 07:13:28;;;;;;;;;;;13.30;56.60;;;;;;4988398;28;87470;-44
2023/10/30 07:15:53;;;;;;;;;;;13.40;56.60;;;;;;4988312;28;88161;-44
2023/10/30 07:18:19;;;;;;;;;;;13.30;56.60;;;;;;4991459;28;87106;-44
2023/10/30 07:20:44;;;;;;;;;;;13.30;56.60;;;;;;4994883;28;86572;-43
2023/10/30 07:23:10;;;;;;;;;;;13.30;56.70;;;;;;4988218;28;87261;-44
2023/10/30 07:25:35;;;;;;;;;;;13.30;56.70;;;;;;4989291;28;87315;-43
2023/10/30 07:28:01;;;;;;;;;;;13.30;56.70;;;;;;4992376;28;88211;-44
2023/10/30 07:30:26;;;;;;;;;;;13.30;56.70;;;;;;4990699;28;87168;-43
2023/10/30 07:32:52;;;;;;;;;;;13.30;56.70;;;;;;4992375;28;88630;-45
2023/10/30 07:35:17;;;;;;;;;;;13.30;56.70;;;;;;4992624;28;88063;-44
2023/10/30 07:37:43;;;;;;;;;;;13.30;56.70;;;;;;4996069;28;87122;-44
2023/10/30 07:40:09;;;;;;;;;;;13.30;56.80;;;;;;4997823;28;89166;-43
2023/10/30 07:42:34;;;;;;;;;;;13.30;56.80;;;;;;4994984;28;87511;-45
2023/10/30 07:45:00;;;;;;;;;;;13.30;56.90;;;;;;4993105;28;89210;-43
2023/10/30 07:47:25;;;;;;;;;;;13.30;56.90;;;;;;4994101;28;89194;-43
2023/10/30 07:49:51;;;;;;;;;;;13.30;56.90;;;;;;4991640;28;87496;-44
2023/10/30 07:52:16;;;;;;;;;;;13.30;56.90;;;;;;4993319;28;88031;-44
2023/10/30 07:54:42;;;;;;;;;;;13.30;57.00;;;;;;4992436;28;87346;-43
2023/10/30 07:57:09;;;;;;;;;;;13.20;57.00;;;;;;4995447;28;87111;-43
2023/10/30 07:59:35;;;;;;;;;;;13.20;57.00;;;;;;4989880;28;88653;-44
2023/10/30 08:02:01;;;;;;;;;;;13.20;57.10;;;;;;4997095;28;87133;-44
2023/10/30 08:04:27;;;;;;;;;;;13.20;57.00;;;;;;4995911;28;87400;-43
2023/10/30 08:06:52;;;;;;;;;;;13.20;57.20;;;;;;4993174;28;88055;-44
2023/10/30 08:09:18;;;;;;;;;;;13.20;57.30;;;;;;4993934;28;88422;-44
2023/10/30 08:11:43;;;;;;;;;;;13.20;57.30;;;;;;4992434;28;86968;-44
2023/10/30 08:14:09;;;;;;;;;;;13.20;57.40;;;;;;4992320;28;89265;-45
2023/10/30 08:16:35;;;;;;;;;;;13.10;57.40;;;;;;4992920;28;88110;-44
2023/10/30 08:19:01;;;;;;;;;;;13.20;57.40;;;;;;4991515;28;88181;-44
2023/10/30 08:21:27;;;;;;;;;;;13.20;57.50;;;;;;4991457;28;89355;-43
2023/10/30 08:23:52;;;;;;;;;;;13.10;57.50;;;;;;4995082;28;87157;-43
2023/10/30 08:26:18;;;;;;;;;;;13.10;57.50;;;;;;4995090;28;88109;-43
2023/10/30 08:28:45;;;;;;;;;;;13.10;57.50;;;;;;4990874;28;88927;-44
2023/10/30 08:31:11;;;;;;;;;;;13.10;57.60;;;;;;4993823;28;88852;-43
2023/10/30 08:33:36;;;;;;;;;;;13.20;57.80;;;;;;4991991;28;86918;-43
2023/10/30 08:36:02;;;;;;;;;;;13.20;57.80;;;;;;4993975;28;87063;-44
2023/10/30 08:38:27;;;;;;;;;;;13.20;57.70;;;;;;4989898;28;88728;-43
2023/10/30 08:40:53;;;;;;;;;;;13.20;57.80;;;;;;4990640;28;89876;-44
2023/10/30 08:43:18;;;;;;;;;;;13.20;57.80;;;;;;4991466;28;87131;-43
2023/10/30 08:45:44;;;;;;;;;;;13.20;57.90;;;;;;4997499;28;87439;-44
2023/10/30 08:48:13;;;;;;;;;;;13.20;57.90;;;;;;4992469;28;87402;-43
2023/10/30 08:50:40;;;;;;;;;;;13.20;57.90;;;;;;4987756;28;87423;-44
2023/10/30 08:53:06;;;;;;;;;;;13.20;58.00;;;;;;4994609;28;88195;-44
2023/10/30 08:55:32;;;;;;;;;;;13.10;58.00;;;;;;4993870;28;87106;-43
2023/10/30 08:57:57;;;;;;;;;;;13.10;58.10;;;;;;4992900;28;89465;-43
2023/10/30 09:00:23;;;;;;;;;;;13.10;58.10;;;;;;4989184;28;88123;-44
2023/10/30 09:02:48;;;;;;;;;;;13.10;58.10;;;;;;4992907;28;87064;-44
2023/10/30 09:05:15;;;;;;;;;;;13.20;58.20;;;;;;4994139;28;88102;-44
2023/10/30 09:07:42;;;;;;;;;;;13.20;58.10;;;;;;4991698;28;87990;-44
2023/10/30 09:10:08;;;;;;;;;;;13.10;58.20;;;;;;4991601;28;87444;-44
2023/10/30 09:12:34;;;;;;;;;;;13.20;58.10;;;;;;4993744;28;87243;-43
2023/10/30 09:14:59;;;;;;;;;;;13.10;58.20;;;;;;4991910;28;87639;-43
2023/10/30 09:17:25;;;;;;;;;;;13.10;58.20;;;;;;4992040;28;89098;-43
2023/10/30 09:19:51;;;;;;;;;;;13.10;58.30;;;;;;4991639;28;87069;-45
2023/10/30 09:22:16;;;;;;;;;;;13.10;58.30;;;;;;4992001;28;86525;-43
2023/10/30 09:24:42;;;;;;;;;;;13.10;58.30;;;;;;4989838;28;87264;-44
2023/10/30 09:27:09;;;;;;;;;;;13.10;58.40;;;;;;4992201;28;88328;-44
2023/10/30 09:29:34;;;;;;;;;;;13.20;58.30;;;;;;4993351;28;88021;-44
2023/10/30 09:32:02;;;;;;;;;;;13.20;58.50;;;;;;4993960;28;88218;-43
2023/10/30 09:34:28;;;;;;;;;;;13.10;58.50;;;;;;4989812;28;87146;-44
2023/10/30 09:36:53;;;;;;;;;;;13.20;58.40;;;;;;4991034;28;87862;-45
2023/10/30 09:39:19;;;;;;;;;;;13.20;58.50;;;;;;4991025;28;88175;-44
2023/10/30 09:41:45;;;;;;;;;;;13.20;58.60;;;;;;4994435;28;87125;-44
2023/10/30 09:44:10;;;;;;;;;;;13.20;58.70;;;;;;4991463;28;87360;-43
2023/10/30 09:46:39;;;;;;;;;;;13.20;58.70;;;;;;4990895;28;87245;-45
2023/10/30 09:49:05;;;;;;;;;;;13.10;58.70;;;;;;4996744;28;87204;-46
2023/10/30 09:51:31;;;;;;;;;;;13.20;58.80;;;;;;4990928;28;87349;-44
2023/10/30 09:53:58;;;;;;;;;;;13.10;58.90;;;;;;4992537;28;88180;-44
2023/10/30 09:56:25;;;;;;;;;;;13.10;59.10;;;;;;4989981;28;87838;-43
2023/10/30 09:58:51;;;;;;;;;;;13.10;59.00;;;;;;4991904;28;87303;-44
2023/10/30 10:01:18;;;;;;;;;;;13.10;58.80;;;;;;4993241;28;87132;-45
2023/10/30 10:03:44;;;;;;;;;;;13.10;59.00;;;;;;4990054;28;87468;-43
2023/10/30 10:06:10;;;;;;;;;;;13.20;58.90;;;;;;4990350;28;89680;-44
2023/10/30 10:08:35;;;;;;;;;;;13.20;59.00;;;;;;4991309;28;87186;-44
2023/10/30 10:11:02;;;;;;;;;;;13.20;58.90;;;;;;4992859;28;86435;-44
2023/10/30 10:13:32;;;;;;;;;;;13.20;59.10;;;;;;4990026;28;88981;-44
2023/10/30 10:15:58;;;;;;;;;;;13.30;59.20;;;;;;4990633;28;87672;-43
2023/10/30 10:18:28;;;;;;;;;;;13.30;59.00;;;;;;4991537;28;89160;-43
2023/10/30 10:21:04;;;;;;;;;;;13.30;59.00;;;;;;4986536;28;88875;-43
2023/10/30 10:23:32;;;;;;;;;;;13.30;59.00;;;;;;4990695;28;87449;-44
2023/10/30 10:25:58;;;;;;;;;;;13.30;59.10;;;;;;4991088;28;88352;-43
2023/10/30 10:28:24;;;;;;;;;;;13.30;59.20;;;;;;4993384;28;87234;-45
2023/10/30 10:30:53;;;;;;;;;;;13.30;59.30;;;;;;4988326;28;87435;-44
2023/10/30 10:33:19;;;;;;;;;;;13.20;59.30;;;;;;4993135;28;87864;-43
2023/10/30 10:35:46;;;;;;;;;;;13.30;59.50;;;;;;4992515;28;89026;-44
2023/10/30 10:38:16;;;;;;;;;;;13.30;59.30;;;;;;4990972;28;87946;-44
2023/10/30 10:40:43;;;;;;;;;;;13.30;59.30;;;;;;4992153;28;87293;-44
2023/10/30 10:43:09;;;;;;;;;;;13.30;59.50;;;;;;4989526;28;87977;-44
2023/10/30 10:45:36;;;;;;;;;;;13.30;59.40;;;;;;4991270;28;88213;-43
2023/10/30 10:48:02;;;;;;;;;;;13.40;59.50;;;;;;4989892;28;87786;-46
2023/10/30 10:50:27;;;;;;;;;;;13.30;59.50;;;;;;4985543;28;87476;-44
2023/10/30 10:52:53;;;;;;;;;;;13.40;59.60;;;;;;4992496;28;88314;-44
2023/10/30 10:55:23;;;;;;;;;;;13.40;59.60;;;;;;4992833;28;87202;-43
2023/10/30 10:57:52;;;;;;;;;;;13.40;59.60;;;;;;4983727;28;88236;-44
2023/10/30 11:00:18;;;;;;;;;;;13.40;59.50;;;;;;4989978;28;86632;-43
2023/10/30 11:02:47;;;;;;;;;;;13.40;59.60;;;;;;4992462;28;88149;-44
2023/10/30 11:05:12;;;;;;;;;;;13.40;59.50;;;;;;4990590;28;87935;-44
2023/10/30 11:07:41;;;;;;;;;;;13.40;59.60;;;;;;4992601;28;88118;-44
2023/10/30 11:10:27;;;;;;;;;;;13.50;59.60;;;;;;4995072;28;87633;-44
2023/10/30 11:13:05;;;;;;;;;;;13.40;59.50;;;;;;4996283;28;88289;-46
2023/10/30 11:15:34;;;;;;;;;;;13.50;59.50;;;;;;4999136;28;87962;-43
2023/10/30 11:18:21;;;;;;;;;;;13.50;59.60;;;;;;4997070;28;88525;-44
2023/10/30 11:20:47;;;;;;;;;;;13.50;59.60;;;;;;4999217;28;87182;-46
2023/10/30 11:23:32;;;;;;;;;;;13.50;59.50;;;;;;4998270;28;87182;-44
2023/10/30 11:25:58;;;;;;;;;;;13.50;59.50;;;;;;4993749;28;88192;-44
2023/10/30 11:28:23;;;;;;;;;;;13.60;59.50;;;;;;4992908;28;87087;-43
2023/10/30 11:30:51;;;;;;;;;;;13.50;59.60;;;;;;5000234;28;87306;-45
2023/10/30 11:33:20;;;;;;;;;;;13.50;59.60;;;;;;4997358;28;89001;-43
2023/10/30 11:35:50;;;;;;;;;;;13.60;59.60;;;;;;4994928;28;87947;-44
2023/10/30 11:38:18;;;;;;;;;;;13.60;59.70;;;;;;5000208;28;87671;-44
2023/10/30 11:41:00;;;;;;;;;;;13.60;59.80;;;;;;4996116;28;87208;-45
2023/10/30 11:43:32;;;;;;;;;;;13.60;59.80;;;;;;5000039;28;91332;-44
2023/10/30 11:46:01;;;;;;;;;;;13.60;59.80;;;;;;4990560;28;88924;-43
2023/10/30 11:48:27;;;;;;;;;;;13.60;59.70;;;;;;4996948;28;87243;-44
2023/10/30 11:50:53;;;;;;;;;;;13.60;59.80;;;;;;4998260;28;87326;-44
2023/10/30 11:53:21;;;;;;;;;;;13.70;59.70;;;;;;4997544;28;88070;-44
2023/10/30 11:55:48;;;;;;;;;;;13.60;59.90;;;;;;4995100;28;88013;-45
2023/10/30 11:58:14;;;;;;;;;;;13.70;59.80;;;;;;4995643;28;88824;-44
2023/10/30 12:00:41;;;;;;;;;;;13.70;59.90;;;;;;5001135;28;88034;-45
2023/10/30 12:03:07;;;;;;;;;;;13.60;59.90;;;;;;4995181;28;87666;-44
2023/10/30 12:05:33;;;;;;;;;;;13.70;59.90;;;;;;4994769;28;88058;-44
2023/10/30 12:07:58;;;;;;;;;;;13.80;59.70;;;;;;4996020;28;87003;-44
2023/10/30 12:10:24;;;;;;;;;;;13.70;59.80;;;;;;4999350;28;87772;-44
2023/10/30 12:12:50;;;;;;;;;;;13.80;59.60;;;;;;4990545;28;88986;-43
2023/10/30 12:15:16;;;;;;;;;;;13.80;59.80;;;;;;4993354;28;86451;-44
2023/10/30 12:17:41;;;;;;;;;;;13.80;59.70;;;;;;4996631;28;88241;-44
2023/10/30 12:20:08;;;;;;;;;;;13.80;59.50;;;;;;4993893;28;88053;-43
2023/10/30 12:22:39;;;;;;;;;;;13.80;59.50;;;;;;4991872;28;88128;-43
2023/10/30 12:25:05;;;;;;;;;;;13.80;59.60;;;;;;4990535;28;87346;-43
2023/10/30 12:27:31;;;;;;;;;;;13.90;59.40;;;;;;4996119;28;87204;-43
2023/10/30 12:29:57;;;;;;;;;;;13.90;59.50;;;;;;4992972;28;88169;-44
2023/10/30 12:32:27;;;;;;;;;;;13.90;59.50;;;;;;4994570;28;88793;-44
2023/10/30 12:34:53;;;;;;;;;;;13.90;59.30;;;;;;4993814;28;87228;-45
2023/10/30 12:37:25;;;;;;;;;;;13.90;59.40;;;;;;4995374;28;87362;-44
2023/10/30 12:40:04;;;;;;;;;;;13.90;59.70;;;;;;4990437;28;88581;-44
2023/10/30 12:42:31;;;;;;;;;;;13.90;59.30;;;;;;4988061;28;87334;-44
2023/10/30 12:44:57;;;;;;;;;;;14.00;59.30;;;;;;4995094;28;87125;-44
2023/10/30 12:47:22;;;;;;;;;;;14.00;59.40;;;;;;4991718;28;88066;-43
2023/10/30 12:49:48;;;;;;;;;;;14.00;59.30;;;;;;4989046;28;89864;-44
2023/10/30 12:52:13;;;;;;;;;;;14.00;59.30;;;;;;4991996;28;89199;-44
2023/10/30 12:54:39;;;;;;;;;;;14.00;59.40;;;;;;4990409;28;87308;-44
2023/10/30 12:57:04;;;;;;;;;;;14.00;59.40;;;;;;4993655;28;87416;-45
2023/10/30 12:59:30;;;;;;;;;;;14.00;59.20;;;;;;4995072;28;88249;-44
2023/10/30 13:01:55;;;;;;;;;;;14.00;60.00;;;;;;4989869;28;87092;-45
2023/10/30 13:04:21;;;;;;;;;;;14.10;59.40;;;;;;4991626;28;87311;-43
2023/10/30 13:06:46;;;;;;;;;;;14.10;59.40;;;;;;4998055;28;87959;-43
2023/10/30 13:09:12;;;;;;;;;;;14.10;59.70;;;;;;4992400;28;88891;-44
2023/10/30 13:11:38;;;;;;;;;;;14.10;59.70;;;;;;4991865;28;89004;-44
2023/10/30 13:16:47;;;;;;;;;;;14.10;59.40;;;;;;4994804;28;87033;-44
2023/10/30 13:19:13;;;;;;;;;;;14.10;59.20;;;;;;4989910;28;87869;-43
2023/10/30 13:21:39;;;;;;;;;;;14.20;59.70;;;;;;4988996;28;88144;-44
2023/10/30 13:24:04;;;;;;;;;;;14.20;59.40;;;;;;4991441;28;87783;-44
2023/10/30 13:26:30;;;;;;;;;;;14.20;59.50;;;;;;4992671;28;87776;-44
2023/10/30 13:28:55;;;;;;;;;;;14.20;59.30;;;;;;4996850;28;87645;-45
2023/10/30 13:31:21;;;;;;;;;;;14.20;59.30;;;;;;4989863;28;88151;-44
2023/10/30 13:33:48;;;;;;;;;;;14.20;59.40;;;;;;4994028;28;87756;-44
2023/10/30 13:36:15;;;;;;;;;;;14.20;59.60;;;;;;4991631;28;88124;-44
2023/10/30 13:38:41;;;;;;;;;;;14.20;60.20;;;;;;4989884;28;88121;-43
2023/10/30 13:41:06;;;;;;;;;;;14.20;59.70;;;;;;4990213;28;87451;-44
2023/10/30 13:43:32;;;;;;;;;;;14.30;59.60;;;;;;4995065;28;87559;-44
2023/10/30 13:45:57;;;;;;;;;;;14.30;59.40;;;;;;4993119;28;87457;-43
2023/10/30 13:48:23;;;;;;;;;;;14.30;59.70;;;;;;4991628;28;87661;-43
2023/10/30 13:50:49;;;;;;;;;;;14.30;59.70;;;;;;4989431;28;87224;-44
2023/10/30 13:53:14;;;;;;;;;;;14.30;59.60;;;;;;4993244;28;86353;-44
2023/10/30 13:55:40;;;;;;;;;;;14.40;59.50;;;;;;4990648;28;87157;-47
2023/10/30 13:58:06;;;;;;;;;;;14.40;59.50;;;;;;4992059;28;88235;-44
2023/10/30 14:00:33;;;;;;;;;;;14.40;59.80;;;;;;4987829;28;88468;-44
2023/10/30 14:03:02;;;;;;;;;;;14.40;59.70;;;;;;4991224;28;89864;-44
2023/10/30 14:05:28;;;;;;;;;;;14.40;59.60;;;;;;4994254;28;88942;-44
2023/10/30 14:07:56;;;;;;;;;;;14.40;59.70;;;;;;4988907;28;88896;-45
2023/10/30 14:10:22;;;;;;;;;;;14.40;59.50;;;;;;4993433;28;87597;-43
2023/10/30 14:12:47;;;;;;;;;;;14.50;59.70;;;;;;4994678;28;87134;-45